sensor_id;sensor_type;location;lat;lon;timestamp;P1;durP1;ratioP1;P2;durP2;ratioP2
20287;SDS011;10303;51.960;8.372;2022-10-17T00:01:17;0.80;;;0.80;;
20287;SDS011;10303;51.960;8.372;2022-10-17T00:03:43;0.67;;;0.67;;
20287;SDS011;10303;51.960;8.372;2022-10-17T00:06:11;0.70;;;0.70;;
20287;SDS011;10303;51.960;8.372;2022-10-17T00:08:39;0.70;;;0.57;;
20287;SDS011;10303;51.960;8.372;2022-10-17T00:11:16;8.13;;;0.60;;
20287;SDS011;10303;51.960;8.372;2022-10-17T00:13:48;0.60;;;0.60;;
20287;SDS011;10303;51.960;8.372;2022-10-17T00:16:25;0.97;;;0.97;;
20287;SDS011;10303;51.960;8.372;2022-10-17T00:18:54;0.90;;;0.70;;
20287;SDS011;10303;51.960;8.372;2022-10-17T00:21:21;0.80;;;0.80;;
20287;SDS011;10303;51.960;8.372;2022-10-17T00:23:49;0.80;;;0.80;;
20287;SDS011;10303;51.960;8.372;2022-10-17T00:26:16;0.50;;;0.50;;
20287;SDS011;10303;51.960;8.372;2022-10-17T00:28:44;0.90;;;0.90;;
20287;SDS011;10303;51.960;8.372;2022-10-17T00:31:13;0.50;;;0.50;;
20287;SDS011;10303;51.960;8.372;2022-10-17T00:33:41;0.60;;;0.60;;
20287;SDS011;10303;51.960;8.372;2022-10-17T00:36:12;0.87;;;0.87;;
20287;SDS011;10303;51.960;8.372;2022-10-17T00:38:42;3.73;;;0.80;;
20287;SDS011;10303;51.960;8.372;2022-10-17T00:41:11;1.07;;;1.00;;
20287;SDS011;10303;51.960;8.372;2022-10-17T00:44:02;0.80;;;0.80;;
20287;SDS011;10303;51.960;8.372;2022-10-17T00:46:55;0.87;;;0.70;;
20287;SDS011;10303;51.960;8.372;2022-10-17T00:49:23;0.63;;;0.63;;
20287;SDS011;10303;51.960;8.372;2022-10-17T00:51:55;1.13;;;1.03;;
20287;SDS011;10303;51.960;8.372;2022-10-17T00:54:27;1.10;;;1.00;;
20287;SDS011;10303;51.960;8.372;2022-10-17T00:57:00;1.57;;;1.03;;
20287;SDS011;10303;51.960;8.372;2022-10-17T00:59:28;1.20;;;1.10;;
20287;SDS011;10303;51.960;8.372;2022-10-17T01:02:05;1.40;;;1.00;;
20287;SDS011;10303;51.960;8.372;2022-10-17T01:04:38;0.97;;;0.97;;
20287;SDS011;10303;51.960;8.372;2022-10-17T01:07:08;1.67;;;1.37;;
20287;SDS011;10303;51.960;8.372;2022-10-17T01:09:35;1.17;;;1.07;;
20287;SDS011;10303;51.960;8.372;2022-10-17T01:32:57;1.20;;;1.10;;
20287;SDS011;10303;51.960;8.372;2022-10-17T01:38:24;0.83;;;0.83;;
20287;SDS011;10303;51.960;8.372;2022-10-17T01:41:12;1.27;;;1.17;;
20287;SDS011;10303;51.960;8.372;2022-10-17T01:44:17;0.80;;;0.80;;
20287;SDS011;10303;51.960;8.372;2022-10-17T01:47:14;1.00;;;1.00;;
20287;SDS011;10303;51.960;8.372;2022-10-17T01:49:44;1.93;;;1.07;;
20287;SDS011;10303;51.960;8.372;2022-10-17T01:52:16;1.13;;;1.03;;
20287;SDS011;10303;51.960;8.372;2022-10-17T01:54:56;3.50;;;1.40;;
20287;SDS011;10303;51.960;8.372;2022-10-17T01:57:33;3.97;;;1.50;;
20287;SDS011;10303;51.960;8.372;2022-10-17T02:00:15;1.30;;;1.20;;
20287;SDS011;10303;51.960;8.372;2022-10-17T02:02:51;1.70;;;1.40;;
20287;SDS011;10303;51.960;8.372;2022-10-17T02:05:23;1.60;;;1.50;;
20287;SDS011;10303;51.960;8.372;2022-10-17T02:07:56;2.47;;;1.67;;
20287;SDS011;10303;51.960;8.372;2022-10-17T02:10:31;1.60;;;1.50;;
20287;SDS011;10303;51.960;8.372;2022-10-17T02:16:19;1.77;;;1.67;;
20287;SDS011;10303;51.960;8.372;2022-10-17T02:19:15;1.60;;;1.50;;
20287;SDS011;10303;51.960;8.372;2022-10-17T02:28:18;2.50;;;2.00;;
20287;SDS011;10303;51.960;8.372;2022-10-17T02:30:59;1.47;;;1.37;;
20287;SDS011;10303;51.960;8.372;2022-10-17T02:36:39;1.67;;;1.50;;
20287;SDS011;10303;51.960;8.372;2022-10-17T02:39:13;1.33;;;1.23;;
20287;SDS011;10303;51.960;8.372;2022-10-17T02:41:41;1.50;;;1.40;;
20287;SDS011;10303;51.960;8.372;2022-10-17T02:44:10;1.43;;;1.33;;
20287;SDS011;10303;51.960;8.372;2022-10-17T02:46:36;1.30;;;1.20;;
20287;SDS011;10303;51.960;8.372;2022-10-17T02:49:22;1.60;;;1.50;;
20287;SDS011;10303;51.960;8.372;2022-10-17T02:54:58;2.70;;;1.63;;
20287;SDS011;10303;51.960;8.372;2022-10-17T02:57:50;2.03;;;1.80;;
20287;SDS011;10303;51.960;8.372;2022-10-17T03:00:23;3.07;;;2.00;;
20287;SDS011;10303;51.960;8.372;2022-10-17T03:02:52;1.83;;;1.73;;
20287;SDS011;10303;51.960;8.372;2022-10-17T03:05:23;3.13;;;1.90;;
20287;SDS011;10303;51.960;8.372;2022-10-17T03:07:53;2.57;;;1.60;;
20287;SDS011;10303;51.960;8.372;2022-10-17T03:10:20;1.50;;;1.40;;
20287;SDS011;10303;51.960;8.372;2022-10-17T03:12:47;2.03;;;1.77;;
20287;SDS011;10303;51.960;8.372;2022-10-17T03:15:14;1.67;;;1.57;;
20287;SDS011;10303;51.960;8.372;2022-10-17T03:17:40;1.77;;;1.67;;
20287;SDS011;10303;51.960;8.372;2022-10-17T03:20:07;1.50;;;1.37;;
20287;SDS011;10303;51.960;8.372;2022-10-17T03:22:34;1.87;;;1.70;;
20287;SDS011;10303;51.960;8.372;2022-10-17T03:25:02;3.27;;;1.87;;
20287;SDS011;10303;51.960;8.372;2022-10-17T03:27:28;1.77;;;1.67;;
20287;SDS011;10303;51.960;8.372;2022-10-17T03:29:54;1.50;;;1.23;;
20287;SDS011;10303;51.960;8.372;2022-10-17T03:32:20;1.10;;;1.00;;
20287;SDS011;10303;51.960;8.372;2022-10-17T03:34:47;1.70;;;1.60;;
20287;SDS011;10303;51.960;8.372;2022-10-17T03:37:13;1.33;;;1.23;;
20287;SDS011;10303;51.960;8.372;2022-10-17T03:39:40;1.63;;;1.10;;
20287;SDS011;10303;51.960;8.372;2022-10-17T03:42:06;1.50;;;1.17;;
20287;SDS011;10303;51.960;8.372;2022-10-17T03:44:32;1.57;;;1.47;;
20287;SDS011;10303;51.960;8.372;2022-10-17T03:46:58;1.40;;;1.30;;
20287;SDS011;10303;51.960;8.372;2022-10-17T03:49:24;3.20;;;1.43;;
20287;SDS011;10303;51.960;8.372;2022-10-17T03:51:53;1.40;;;1.30;;
20287;SDS011;10303;51.960;8.372;2022-10-17T03:54:19;1.20;;;1.10;;
20287;SDS011;10303;51.960;8.372;2022-10-17T03:56:45;2.20;;;1.20;;
20287;SDS011;10303;51.960;8.372;2022-10-17T03:59:15;1.30;;;1.20;;
20287;SDS011;10303;51.960;8.372;2022-10-17T04:01:48;1.40;;;1.30;;
20287;SDS011;10303;51.960;8.372;2022-10-17T04:04:15;1.40;;;1.30;;
20287;SDS011;10303;51.960;8.372;2022-10-17T04:06:41;1.40;;;1.30;;
20287;SDS011;10303;51.960;8.372;2022-10-17T04:09:09;1.40;;;1.30;;
20287;SDS011;10303;51.960;8.372;2022-10-17T04:11:59;1.50;;;1.40;;
20287;SDS011;10303;51.960;8.372;2022-10-17T04:14:25;2.10;;;1.60;;
20287;SDS011;10303;51.960;8.372;2022-10-17T04:16:51;2.67;;;1.70;;
20287;SDS011;10303;51.960;8.372;2022-10-17T04:19:19;2.03;;;1.87;;
20287;SDS011;10303;51.960;8.372;2022-10-17T04:21:46;1.90;;;1.80;;
20287;SDS011;10303;51.960;8.372;2022-10-17T04:24:13;1.63;;;1.53;;
20287;SDS011;10303;51.960;8.372;2022-10-17T04:26:48;1.77;;;1.67;;
20287;SDS011;10303;51.960;8.372;2022-10-17T04:29:16;2.10;;;1.53;;
20287;SDS011;10303;51.960;8.372;2022-10-17T04:31:44;1.93;;;1.83;;
20287;SDS011;10303;51.960;8.372;2022-10-17T04:34:21;2.07;;;1.80;;
20287;SDS011;10303;51.960;8.372;2022-10-17T04:36:47;1.60;;;1.50;;
20287;SDS011;10303;51.960;8.372;2022-10-17T04:39:13;1.53;;;1.43;;
20287;SDS011;10303;51.960;8.372;2022-10-17T04:41:40;2.00;;;1.67;;
20287;SDS011;10303;51.960;8.372;2022-10-17T04:44:08;1.30;;;1.20;;
20287;SDS011;10303;51.960;8.372;2022-10-17T04:46:40;2.00;;;1.80;;
20287;SDS011;10303;51.960;8.372;2022-10-17T04:49:06;1.50;;;1.40;;
20287;SDS011;10303;51.960;8.372;2022-10-17T04:51:34;2.37;;;1.83;;
20287;SDS011;10303;51.960;8.372;2022-10-17T04:54:17;2.00;;;1.77;;
20287;SDS011;10303;51.960;8.372;2022-10-17T04:56:47;2.10;;;1.80;;
20287;SDS011;10303;51.960;8.372;2022-10-17T04:59:13;1.60;;;1.50;;
20287;SDS011;10303;51.960;8.372;2022-10-17T05:01:41;2.07;;;1.90;;
20287;SDS011;10303;51.960;8.372;2022-10-17T05:04:08;2.80;;;1.50;;
20287;SDS011;10303;51.960;8.372;2022-10-17T05:06:34;2.43;;;1.67;;
20287;SDS011;10303;51.960;8.372;2022-10-17T05:09:21;1.70;;;1.60;;
20287;SDS011;10303;51.960;8.372;2022-10-17T05:11:47;3.30;;;1.57;;
20287;SDS011;10303;51.960;8.372;2022-10-17T05:14:14;2.00;;;1.90;;
20287;SDS011;10303;51.960;8.372;2022-10-17T05:16:40;3.03;;;1.90;;
20287;SDS011;10303;51.960;8.372;2022-10-17T05:19:06;2.37;;;1.90;;
20287;SDS011;10303;51.960;8.372;2022-10-17T05:21:38;2.17;;;1.77;;
20287;SDS011;10303;51.960;8.372;2022-10-17T05:24:05;2.20;;;2.00;;
20287;SDS011;10303;51.960;8.372;2022-10-17T05:26:33;2.83;;;2.17;;
20287;SDS011;10303;51.960;8.372;2022-10-17T05:29:00;3.47;;;2.20;;
20287;SDS011;10303;51.960;8.372;2022-10-17T05:31:29;3.43;;;3.10;;
20287;SDS011;10303;51.960;8.372;2022-10-17T05:34:00;2.60;;;2.40;;
20287;SDS011;10303;51.960;8.372;2022-10-17T05:36:29;2.23;;;2.00;;
20287;SDS011;10303;51.960;8.372;2022-10-17T05:38:58;2.10;;;1.80;;
20287;SDS011;10303;51.960;8.372;2022-10-17T05:41:25;2.60;;;2.30;;
20287;SDS011;10303;51.960;8.372;2022-10-17T05:43:51;1.77;;;1.67;;
20287;SDS011;10303;51.960;8.372;2022-10-17T05:46:24;1.97;;;1.87;;
20287;SDS011;10303;51.960;8.372;2022-10-17T05:48:51;2.37;;;1.90;;
20287;SDS011;10303;51.960;8.372;2022-10-17T05:51:19;1.83;;;1.60;;
20287;SDS011;10303;51.960;8.372;2022-10-17T05:53:45;3.03;;;1.73;;
20287;SDS011;10303;51.960;8.372;2022-10-17T05:56:18;1.90;;;1.80;;
20287;SDS011;10303;51.960;8.372;2022-10-17T05:58:46;1.60;;;1.50;;
20287;SDS011;10303;51.960;8.372;2022-10-17T06:01:40;6.53;;;1.60;;
20287;SDS011;10303;51.960;8.372;2022-10-17T06:04:06;4.03;;;1.93;;
20287;SDS011;10303;51.960;8.372;2022-10-17T06:06:34;2.07;;;1.87;;
20287;SDS011;10303;51.960;8.372;2022-10-17T06:09:02;1.33;;;1.23;;
20287;SDS011;10303;51.960;8.372;2022-10-17T06:11:32;1.77;;;1.67;;
20287;SDS011;10303;51.960;8.372;2022-10-17T06:13:59;3.27;;;1.83;;
20287;SDS011;10303;51.960;8.372;2022-10-17T06:16:28;1.80;;;1.70;;
20287;SDS011;10303;51.960;8.372;2022-10-17T06:18:54;3.27;;;2.37;;
20287;SDS011;10303;51.960;8.372;2022-10-17T06:21:21;2.33;;;1.93;;
20287;SDS011;10303;51.960;8.372;2022-10-17T06:23:52;1.93;;;1.73;;
20287;SDS011;10303;51.960;8.372;2022-10-17T06:26:31;3.00;;;1.73;;
20287;SDS011;10303;51.960;8.372;2022-10-17T06:28:57;2.10;;;1.80;;
20287;SDS011;10303;51.960;8.372;2022-10-17T06:31:27;2.33;;;1.50;;
20287;SDS011;10303;51.960;8.372;2022-10-17T06:33:54;1.70;;;1.60;;
20287;SDS011;10303;51.960;8.372;2022-10-17T06:36:20;1.73;;;1.63;;
20287;SDS011;10303;51.960;8.372;2022-10-17T06:38:48;1.80;;;1.70;;
20287;SDS011;10303;51.960;8.372;2022-10-17T06:41:22;1.97;;;1.63;;
20287;SDS011;10303;51.960;8.372;2022-10-17T06:43:51;2.07;;;1.87;;
20287;SDS011;10303;51.960;8.372;2022-10-17T06:46:38;2.10;;;1.90;;
20287;SDS011;10303;51.960;8.372;2022-10-17T06:49:08;2.80;;;1.87;;
20287;SDS011;10303;51.960;8.372;2022-10-17T06:51:54;2.37;;;2.17;;
20287;SDS011;10303;51.960;8.372;2022-10-17T06:54:29;2.07;;;1.97;;
20287;SDS011;10303;51.960;8.372;2022-10-17T06:57:13;3.17;;;2.30;;
20287;SDS011;10303;51.960;8.372;2022-10-17T07:00:01;2.27;;;2.13;;
20287;SDS011;10303;51.960;8.372;2022-10-17T07:02:38;2.33;;;2.13;;
20287;SDS011;10303;51.960;8.372;2022-10-17T07:05:07;3.23;;;1.60;;
20287;SDS011;10303;51.960;8.372;2022-10-17T07:07:33;2.23;;;1.80;;
20287;SDS011;10303;51.960;8.372;2022-10-17T07:10:02;2.00;;;1.83;;
20287;SDS011;10303;51.960;8.372;2022-10-17T07:12:34;2.30;;;2.10;;
20287;SDS011;10303;51.960;8.372;2022-10-17T07:15:01;2.17;;;1.97;;
20287;SDS011;10303;51.960;8.372;2022-10-17T07:17:29;1.77;;;1.67;;
20287;SDS011;10303;51.960;8.372;2022-10-17T07:19:55;2.30;;;2.10;;
20287;SDS011;10303;51.960;8.372;2022-10-17T07:22:22;1.67;;;1.57;;
20287;SDS011;10303;51.960;8.372;2022-10-17T07:24:51;1.80;;;1.70;;
20287;SDS011;10303;51.960;8.372;2022-10-17T07:27:37;2.00;;;1.90;;
20287;SDS011;10303;51.960;8.372;2022-10-17T07:30:04;2.93;;;2.10;;
20287;SDS011;10303;51.960;8.372;2022-10-17T07:32:35;1.40;;;1.30;;
20287;SDS011;10303;51.960;8.372;2022-10-17T07:35:02;2.87;;;1.73;;
20287;SDS011;10303;51.960;8.372;2022-10-17T07:37:28;2.40;;;2.20;;
20287;SDS011;10303;51.960;8.372;2022-10-17T07:39:55;2.03;;;1.80;;
20287;SDS011;10303;51.960;8.372;2022-10-17T07:42:21;3.10;;;1.63;;
20287;SDS011;10303;51.960;8.372;2022-10-17T07:44:48;1.63;;;1.53;;
20287;SDS011;10303;51.960;8.372;2022-10-17T07:47:15;1.93;;;1.77;;
20287;SDS011;10303;51.960;8.372;2022-10-17T07:49:42;3.20;;;1.60;;
20287;SDS011;10303;51.960;8.372;2022-10-17T07:52:10;1.83;;;1.73;;
20287;SDS011;10303;51.960;8.372;2022-10-17T07:54:37;2.30;;;2.10;;
20287;SDS011;10303;51.960;8.372;2022-10-17T07:57:04;1.60;;;1.50;;
20287;SDS011;10303;51.960;8.372;2022-10-17T07:59:34;2.70;;;1.97;;
20287;SDS011;10303;51.960;8.372;2022-10-17T08:02:02;2.30;;;2.10;;
20287;SDS011;10303;51.960;8.372;2022-10-17T08:04:29;2.03;;;1.93;;
20287;SDS011;10303;51.960;8.372;2022-10-17T08:06:55;2.20;;;2.00;;
20287;SDS011;10303;51.960;8.372;2022-10-17T08:09:21;3.07;;;2.10;;
20287;SDS011;10303;51.960;8.372;2022-10-17T08:11:48;3.33;;;1.97;;
20287;SDS011;10303;51.960;8.372;2022-10-17T08:14:15;2.33;;;1.77;;
20287;SDS011;10303;51.960;8.372;2022-10-17T08:16:41;4.40;;;1.90;;
20287;SDS011;10303;51.960;8.372;2022-10-17T08:19:08;2.00;;;1.73;;
20287;SDS011;10303;51.960;8.372;2022-10-17T08:21:36;1.90;;;1.70;;
20287;SDS011;10303;51.960;8.372;2022-10-17T08:24:09;1.93;;;1.40;;
20287;SDS011;10303;51.960;8.372;2022-10-17T08:26:34;1.83;;;1.73;;
20287;SDS011;10303;51.960;8.372;2022-10-17T08:29:01;1.70;;;1.60;;
20287;SDS011;10303;51.960;8.372;2022-10-17T08:31:27;1.48;;;1.38;;
20287;SDS011;10303;51.960;8.372;2022-10-17T08:33:53;1.67;;;1.57;;
20287;SDS011;10303;51.960;8.372;2022-10-17T08:36:19;1.80;;;1.70;;
20287;SDS011;10303;51.960;8.372;2022-10-17T08:38:46;1.93;;;1.83;;
20287;SDS011;10303;51.960;8.372;2022-10-17T08:44:15;1.67;;;1.58;;
20287;SDS011;10303;51.960;8.372;2022-10-17T08:47:05;1.73;;;1.63;;
20287;SDS011;10303;51.960;8.372;2022-10-17T08:55:15;1.58;;;1.45;;
20287;SDS011;10303;51.960;8.372;2022-10-17T08:57:59;1.60;;;1.50;;
20287;SDS011;10303;51.960;8.372;2022-10-17T09:00:26;1.88;;;1.77;;
20287;SDS011;10303;51.960;8.372;2022-10-17T09:19:42;2.22;;;2.03;;
20287;SDS011;10303;51.960;8.372;2022-10-17T09:22:32;3.30;;;2.00;;
20287;SDS011;10303;51.960;8.372;2022-10-17T09:25:10;5.10;;;2.70;;
20287;SDS011;10303;51.960;8.372;2022-10-17T09:27:45;4.88;;;2.03;;
20287;SDS011;10303;51.960;8.372;2022-10-17T09:35:42;2.53;;;2.33;;
20287;SDS011;10303;51.960;8.372;2022-10-17T09:38:20;2.50;;;2.22;;
20287;SDS011;10303;51.960;8.372;2022-10-17T09:40:53;1.80;;;1.70;;
20287;SDS011;10303;51.960;8.372;2022-10-17T09:43:24;1.95;;;1.73;;
20287;SDS011;10303;51.960;8.372;2022-10-17T09:45:58;1.88;;;1.70;;
20287;SDS011;10303;51.960;8.372;2022-10-17T09:48:30;1.60;;;1.50;;
20287;SDS011;10303;51.960;8.372;2022-10-17T09:51:03;2.08;;;1.88;;
20287;SDS011;10303;51.960;8.372;2022-10-17T09:53:37;2.17;;;2.08;;
20287;SDS011;10303;51.960;8.372;2022-10-17T09:56:11;1.70;;;1.60;;
20287;SDS011;10303;51.960;8.372;2022-10-17T09:58:52;1.88;;;1.67;;
20287;SDS011;10303;51.960;8.372;2022-10-17T10:01:29;1.85;;;1.75;;
20287;SDS011;10303;51.960;8.372;2022-10-17T10:04:15;4.55;;;2.10;;
20287;SDS011;10303;51.960;8.372;2022-10-17T10:07:01;2.53;;;1.80;;
20287;SDS011;10303;51.960;8.372;2022-10-17T10:12:02;2.17;;;1.98;;
20287;SDS011;10303;51.960;8.372;2022-10-17T10:14:40;2.88;;;2.00;;
20287;SDS011;10303;51.960;8.372;2022-10-17T10:20:50;4.53;;;1.80;;
20287;SDS011;10303;51.960;8.372;2022-10-17T10:23:15;3.95;;;2.47;;
20287;SDS011;10303;51.960;8.372;2022-10-17T10:25:51;1.98;;;1.88;;
20287;SDS011;10303;51.960;8.372;2022-10-17T10:28:32;2.13;;;1.95;;
20287;SDS011;10303;51.960;8.372;2022-10-17T10:31:07;1.90;;;1.80;;
20287;SDS011;10303;51.960;8.372;2022-10-17T10:33:36;2.85;;;1.70;;
20287;SDS011;10303;51.960;8.372;2022-10-17T10:36:07;1.75;;;1.63;;
20287;SDS011;10303;51.960;8.372;2022-10-17T10:38:34;2.67;;;1.90;;
20287;SDS011;10303;51.960;8.372;2022-10-17T10:41:06;4.93;;;1.60;;
20287;SDS011;10303;51.960;8.372;2022-10-17T10:43:42;2.35;;;2.00;;
20287;SDS011;10303;51.960;8.372;2022-10-17T10:46:19;2.65;;;1.95;;
20287;SDS011;10303;51.960;8.372;2022-10-17T10:48:55;2.28;;;1.70;;
20287;SDS011;10303;51.960;8.372;2022-10-17T10:51:31;1.70;;;1.60;;
20287;SDS011;10303;51.960;8.372;2022-10-17T10:54:25;1.92;;;1.83;;
20287;SDS011;10303;51.960;8.372;2022-10-17T10:57:03;1.65;;;1.55;;
20287;SDS011;10303;51.960;8.372;2022-10-17T10:59:41;1.60;;;1.50;;
20287;SDS011;10303;51.960;8.372;2022-10-17T11:02:53;1.63;;;1.52;;
20287;SDS011;10303;51.960;8.372;2022-10-17T11:08:27;1.38;;;1.27;;
20287;SDS011;10303;51.960;8.372;2022-10-17T11:11:24;1.55;;;1.20;;
20287;SDS011;10303;51.960;8.372;2022-10-17T11:16:46;2.40;;;1.58;;
20287;SDS011;10303;51.960;8.372;2022-10-17T11:22:33;1.52;;;1.42;;
20287;SDS011;10303;51.960;8.372;2022-10-17T11:27:58;2.00;;;1.77;;
20287;SDS011;10303;51.960;8.372;2022-10-17T11:30:27;2.05;;;1.88;;
20287;SDS011;10303;51.960;8.372;2022-10-17T11:33:13;1.83;;;1.65;;
20287;SDS011;10303;51.960;8.372;2022-10-17T11:41:25;2.13;;;2.03;;
20287;SDS011;10303;51.960;8.372;2022-10-17T11:47:11;1.60;;;1.50;;
20287;SDS011;10303;51.960;8.372;2022-10-17T11:49:56;2.40;;;2.20;;
20287;SDS011;10303;51.960;8.372;2022-10-17T11:55:15;2.65;;;2.40;;
20287;SDS011;10303;51.960;8.372;2022-10-17T12:01:23;2.72;;;2.05;;
20287;SDS011;10303;51.960;8.372;2022-10-17T12:06:55;3.17;;;2.03;;
20287;SDS011;10303;51.960;8.372;2022-10-17T12:09:28;3.35;;;2.00;;
20287;SDS011;10303;51.960;8.372;2022-10-17T12:12:28;3.03;;;2.33;;
20287;SDS011;10303;51.960;8.372;2022-10-17T12:17:58;3.75;;;2.38;;
20287;SDS011;10303;51.960;8.372;2022-10-17T12:20:30;2.97;;;1.83;;
20287;SDS011;10303;51.960;8.372;2022-10-17T12:28:41;2.55;;;2.35;;
20287;SDS011;10303;51.960;8.372;2022-10-17T12:33:59;2.10;;;1.88;;
20287;SDS011;10303;51.960;8.372;2022-10-17T12:46:48;2.28;;;1.58;;
20287;SDS011;10303;51.960;8.372;2022-10-17T12:57:36;3.97;;;2.20;;
20287;SDS011;10303;51.960;8.372;2022-10-17T13:00:21;2.28;;;2.08;;
20287;SDS011;10303;51.960;8.372;2022-10-17T13:03:00;3.25;;;1.92;;
20287;SDS011;10303;51.960;8.372;2022-10-17T13:05:36;3.05;;;2.65;;
20287;SDS011;10303;51.960;8.372;2022-10-17T13:08:07;2.08;;;1.90;;
20287;SDS011;10303;51.960;8.372;2022-10-17T13:10:43;2.50;;;1.60;;
20287;SDS011;10303;51.960;8.372;2022-10-17T13:13:23;3.58;;;2.05;;
20287;SDS011;10303;51.960;8.372;2022-10-17T13:16:03;3.30;;;1.98;;
20287;SDS011;10303;51.960;8.372;2022-10-17T13:18:29;3.05;;;1.92;;
20287;SDS011;10303;51.960;8.372;2022-10-17T13:20:58;3.17;;;2.20;;
20287;SDS011;10303;51.960;8.372;2022-10-17T13:23:29;6.30;;;1.85;;
20287;SDS011;10303;51.960;8.372;2022-10-17T13:26:03;1.70;;;1.60;;
20287;SDS011;10303;51.960;8.372;2022-10-17T13:28:38;2.65;;;2.22;;
20287;SDS011;10303;51.960;8.372;2022-10-17T13:31:05;3.35;;;1.67;;
20287;SDS011;10303;51.960;8.372;2022-10-17T13:33:47;1.80;;;1.70;;
20287;SDS011;10303;51.960;8.372;2022-10-17T13:36:20;2.20;;;1.60;;
20287;SDS011;10303;51.960;8.372;2022-10-17T13:38:47;2.13;;;1.98;;
20287;SDS011;10303;51.960;8.372;2022-10-17T13:43:51;3.08;;;1.63;;
20287;SDS011;10303;51.960;8.372;2022-10-17T13:46:33;3.03;;;1.80;;
20287;SDS011;10303;51.960;8.372;2022-10-17T13:49:41;1.80;;;1.70;;
20287;SDS011;10303;51.960;8.372;2022-10-17T13:52:13;1.77;;;1.67;;
20287;SDS011;10303;51.960;8.372;2022-10-17T13:54:49;2.38;;;1.77;;
20287;SDS011;10303;51.960;8.372;2022-10-17T13:57:25;3.03;;;2.13;;
20287;SDS011;10303;51.960;8.372;2022-10-17T14:02:47;2.92;;;1.65;;
20287;SDS011;10303;51.960;8.372;2022-10-17T14:05:18;2.15;;;1.95;;
20287;SDS011;10303;51.960;8.372;2022-10-17T14:07:58;1.50;;;1.40;;
20287;SDS011;10303;51.960;8.372;2022-10-17T14:10:34;3.15;;;1.90;;
20287;SDS011;10303;51.960;8.372;2022-10-17T14:13:06;1.52;;;1.42;;
20287;SDS011;10303;51.960;8.372;2022-10-17T14:15:45;2.53;;;2.17;;
20287;SDS011;10303;51.960;8.372;2022-10-17T14:18:16;1.65;;;1.55;;
20287;SDS011;10303;51.960;8.372;2022-10-17T14:20:58;1.95;;;1.85;;
20287;SDS011;10303;51.960;8.372;2022-10-17T14:23:39;2.08;;;1.88;;
20287;SDS011;10303;51.960;8.372;2022-10-17T14:28:40;5.80;;;2.60;;
20287;SDS011;10303;51.960;8.372;2022-10-17T14:31:21;2.13;;;1.92;;
20287;SDS011;10303;51.960;8.372;2022-10-17T14:33:54;2.22;;;2.03;;
20287;SDS011;10303;51.960;8.372;2022-10-17T14:36:33;2.13;;;1.65;;
20287;SDS011;10303;51.960;8.372;2022-10-17T14:39:07;4.28;;;1.98;;
20287;SDS011;10303;51.960;8.372;2022-10-17T14:41:47;1.25;;;1.15;;
20287;SDS011;10303;51.960;8.372;2022-10-17T14:44:26;1.30;;;1.20;;
20287;SDS011;10303;51.960;8.372;2022-10-17T14:47:03;3.28;;;1.73;;
20287;SDS011;10303;51.960;8.372;2022-10-17T14:49:39;1.75;;;1.58;;
20287;SDS011;10303;51.960;8.372;2022-10-17T14:54:42;1.27;;;1.17;;
20287;SDS011;10303;51.960;8.372;2022-10-17T14:57:19;1.20;;;1.20;;
20287;SDS011;10303;51.960;8.372;2022-10-17T14:59:54;1.45;;;1.35;;
20287;SDS011;10303;51.960;8.372;2022-10-17T15:02:24;3.42;;;1.73;;
20287;SDS011;10303;51.960;8.372;2022-10-17T15:04:53;1.20;;;1.10;;
20287;SDS011;10303;51.960;8.372;2022-10-17T15:07:19;1.45;;;1.35;;
20287;SDS011;10303;51.960;8.372;2022-10-17T15:09:48;1.77;;;1.20;;
20287;SDS011;10303;51.960;8.372;2022-10-17T15:12:17;1.35;;;1.25;;
20287;SDS011;10303;51.960;8.372;2022-10-17T15:14:47;1.42;;;1.33;;
20287;SDS011;10303;51.960;8.372;2022-10-17T15:17:17;2.22;;;1.40;;
20287;SDS011;10303;51.960;8.372;2022-10-17T15:19:51;1.42;;;1.33;;
20287;SDS011;10303;51.960;8.372;2022-10-17T15:22:17;2.40;;;1.05;;
20287;SDS011;10303;51.960;8.372;2022-10-17T15:24:43;1.70;;;1.60;;
20287;SDS011;10303;51.960;8.372;2022-10-17T15:27:31;4.45;;;1.20;;
20287;SDS011;10303;51.960;8.372;2022-10-17T15:29:57;1.40;;;1.30;;
20287;SDS011;10303;51.960;8.372;2022-10-17T15:32:23;2.20;;;1.63;;
20287;SDS011;10303;51.960;8.372;2022-10-17T15:34:49;3.70;;;1.98;;
20287;SDS011;10303;51.960;8.372;2022-10-17T15:37:17;2.40;;;1.75;;
20287;SDS011;10303;51.960;8.372;2022-10-17T15:39:48;1.73;;;1.63;;
20287;SDS011;10303;51.960;8.372;2022-10-17T15:42:18;2.40;;;2.10;;
20287;SDS011;10303;51.960;8.372;2022-10-17T15:44:53;1.83;;;1.67;;
20287;SDS011;10303;51.960;8.372;2022-10-17T15:47:30;2.55;;;1.88;;
20287;SDS011;10303;51.960;8.372;2022-10-17T15:49:58;2.60;;;1.88;;
20287;SDS011;10303;51.960;8.372;2022-10-17T15:52:25;2.10;;;2.00;;
20287;SDS011;10303;51.960;8.372;2022-10-17T15:54:53;3.35;;;1.90;;
20287;SDS011;10303;51.960;8.372;2022-10-17T15:57:20;1.88;;;1.77;;
20287;SDS011;10303;51.960;8.372;2022-10-17T15:59:50;2.42;;;1.88;;
20287;SDS011;10303;51.960;8.372;2022-10-17T16:02:19;1.90;;;1.80;;
20287;SDS011;10303;51.960;8.372;2022-10-17T16:04:47;2.42;;;2.22;;
20287;SDS011;10303;51.960;8.372;2022-10-17T16:07:15;2.13;;;1.92;;
20287;SDS011;10303;51.960;8.372;2022-10-17T16:09:45;2.35;;;1.90;;
20287;SDS011;10303;51.960;8.372;2022-10-17T16:12:18;3.42;;;1.90;;
20287;SDS011;10303;51.960;8.372;2022-10-17T16:14:52;4.22;;;1.80;;
20287;SDS011;10303;51.960;8.372;2022-10-17T16:17:18;5.90;;;2.10;;
20287;SDS011;10303;51.960;8.372;2022-10-17T16:19:44;2.53;;;1.80;;
20287;SDS011;10303;51.960;8.372;2022-10-17T16:22:16;2.90;;;1.80;;
20287;SDS011;10303;51.960;8.372;2022-10-17T16:25:01;3.88;;;2.10;;
20287;SDS011;10303;51.960;8.372;2022-10-17T16:27:37;3.38;;;2.15;;
20287;SDS011;10303;51.960;8.372;2022-10-17T16:30:05;6.68;;;1.90;;
20287;SDS011;10303;51.960;8.372;2022-10-17T16:32:36;2.90;;;1.90;;
20287;SDS011;10303;51.960;8.372;2022-10-17T16:35:04;2.67;;;1.80;;
20287;SDS011;10303;51.960;8.372;2022-10-17T16:37:32;1.85;;;1.70;;
20287;SDS011;10303;51.960;8.372;2022-10-17T16:40:00;2.30;;;2.10;;
20287;SDS011;10303;51.960;8.372;2022-10-17T16:42:30;4.07;;;2.42;;
20287;SDS011;10303;51.960;8.372;2022-10-17T16:44:57;2.38;;;2.17;;
20287;SDS011;10303;51.960;8.372;2022-10-17T16:47:25;3.65;;;2.17;;
20287;SDS011;10303;51.960;8.372;2022-10-17T16:49:52;2.30;;;2.05;;
20287;SDS011;10303;51.960;8.372;2022-10-17T16:52:18;2.38;;;1.90;;
20287;SDS011;10303;51.960;8.372;2022-10-17T16:54:44;3.08;;;2.63;;
20287;SDS011;10303;51.960;8.372;2022-10-17T16:57:12;1.77;;;1.67;;
20287;SDS011;10303;51.960;8.372;2022-10-17T16:59:39;2.50;;;1.92;;
20287;SDS011;10303;51.960;8.372;2022-10-17T17:02:05;6.07;;;1.73;;
20287;SDS011;10303;51.960;8.372;2022-10-17T17:04:32;2.50;;;2.30;;
20287;SDS011;10303;51.960;8.372;2022-10-17T17:06:59;3.00;;;1.58;;
20287;SDS011;10303;51.960;8.372;2022-10-17T17:09:26;1.98;;;1.77;;
20287;SDS011;10303;51.960;8.372;2022-10-17T17:14:23;2.10;;;1.67;;
20287;SDS011;10303;51.960;8.372;2022-10-17T17:16:50;2.33;;;2.13;;
20287;SDS011;10303;51.960;8.372;2022-10-17T17:19:16;1.52;;;1.42;;
20287;SDS011;10303;51.960;8.372;2022-10-17T17:21:43;2.45;;;2.25;;
20287;SDS011;10303;51.960;8.372;2022-10-17T17:24:15;3.28;;;1.90;;
20287;SDS011;10303;51.960;8.372;2022-10-17T17:26:58;2.08;;;1.65;;
20287;SDS011;10303;51.960;8.372;2022-10-17T17:29:25;1.65;;;1.52;;
20287;SDS011;10303;51.960;8.372;2022-10-17T17:31:52;3.65;;;2.10;;
20287;SDS011;10303;51.960;8.372;2022-10-17T17:34:19;7.38;;;1.80;;
20287;SDS011;10303;51.960;8.372;2022-10-17T17:36:47;7.25;;;2.47;;
20287;SDS011;10303;51.960;8.372;2022-10-17T17:39:19;4.97;;;2.05;;
20287;SDS011;10303;51.960;8.372;2022-10-17T17:41:48;2.03;;;1.77;;
20287;SDS011;10303;51.960;8.372;2022-10-17T17:44:15;1.98;;;1.88;;
20287;SDS011;10303;51.960;8.372;2022-10-17T17:46:41;2.50;;;2.30;;